Time;durP1;ratioP1;P1;durP2;ratioP2;P2;SDS_P1;SDS_P2;PMS_P1;PMS_P2;Temp;Humidity;BMP_temperature;BMP_pressure;BME280_temperature;BME280_humidity;BME280_pressure;Samples;Min_cycle;Max_cycle;Signal;HPM_P1;HPM_P2
2022/06/21 00:00:57;;;;;;;6.38;1.47;;;;;;;;;;351820;150;857423;-53
2022/06/21 00:01:59;;;;;;;3.09;1.67;;;;;;;;;;351656;152;857333;-53
2022/06/21 00:03:08;;;;;;;3.78;1.76;;;;;;;;;;351229;151;857327;-53
2022/06/21 00:04:10;;;;;;;2.73;1.43;;;;;;;;;;350260;150;859725;-53
2022/06/21 00:05:13;;;;;;;4.01;1.56;;;;;;;;;;351576;151;859157;-54
2022/06/21 00:06:18;;;;;;;2.91;1.72;;;;;;;;;;351336;151;864341;-55
2022/06/21 00:07:24;;;;;;;5.62;1.73;;;;;;;;;;350529;150;858395;-54
2022/06/21 00:08:27;;;;;;;5.36;1.67;;;;;;;;;;352503;151;857325;-55
2022/06/21 00:09:29;;;;;;;2.86;1.59;;;;;;;;;;351218;150;860394;-55
2022/06/21 00:10:34;;;;;;;2.66;1.56;;;;;;;;;;351041;151;857313;-54
2022/06/21 00:11:34;;;;;;;2.03;1.44;;;;;;;;;;351603;151;865446;-54
2022/06/21 00:12:36;;;;;;;24.56;2.86;;;;;;;;;;350622;152;858355;-54
2022/06/21 00:13:37;;;;;;;5.11;1.61;;;;;;;;;;351437;151;866406;-53
2022/06/21 00:14:40;;;;;;;2.80;1.63;;;;;;;;;;350831;152;858728;-53
2022/06/21 00:15:42;;;;;;;3.92;1.53;;;;;;;;;;350868;150;860248;-52
2022/06/21 00:16:44;;;;;;;2.71;1.41;;;;;;;;;;351561;151;857387;-55
2022/06/21 00:17:47;;;;;;;2.47;1.59;;;;;;;;;;341253;155;857418;-53
2022/06/21 00:18:49;;;;;;;2.11;1.17;;;;;;;;;;338245;156;858274;-54
2022/06/21 00:19:51;;;;;;;2.04;1.56;;;;;;;;;;345560;153;860128;-53
2022/06/21 00:20:52;;;;;;;5.27;1.48;;;;;;;;;;348398;153;865852;-53
2022/06/21 00:21:54;;;;;;;3.55;1.71;;;;;;;;;;347561;151;859010;-54
2022/06/21 00:22:56;;;;;;;2.54;1.37;;;;;;;;;;348922;152;864821;-53
2022/06/21 00:23:57;;;;;;;2.13;1.49;;;;;;;;;;348147;152;866767;-53
2022/06/21 00:24:59;;;;;;;4.38;1.44;;;;;;;;;;348551;152;858994;-53
2022/06/21 00:26:00;;;;;;;2.44;1.71;;;;;;;;;;347863;154;857318;-53
2022/06/21 00:27:02;;;;;;;6.56;1.68;;;;;;;;;;348310;151;857925;-55
2022/06/21 00:28:05;;;;;;;3.61;1.37;;;;;;;;;;348725;154;864760;-52
2022/06/21 00:29:06;;;;;;;2.01;1.47;;;;;;;;;;348528;153;857272;-54
2022/06/21 00:30:09;;;;;;;2.24;1.31;;;;;;;;;;348184;153;857934;-54
2022/06/21 00:31:15;;;;;;;2.09;1.35;;;;;;;;;;347929;151;857365;-54
2022/06/21 00:32:18;;;;;;;3.31;1.37;;;;;;;;;;347943;152;857359;-54
2022/06/21 00:33:22;;;;;;;2.62;1.40;;;;;;;;;;347974;151;857839;-53
2022/06/21 00:34:23;;;;;;;2.30;1.45;;;;;;;;;;348497;151;857286;-53
2022/06/21 00:35:25;;;;;;;2.98;1.29;;;;;;;;;;338356;158;857349;-53
2022/06/21 00:36:28;;;;;;;2.97;1.32;;;;;;;;;;343426;153;858286;-53
2022/06/21 00:37:30;;;;;;;4.72;1.40;;;;;;;;;;343935;155;857412;-54
2022/06/21 00:38:32;;;;;;;1.80;1.30;;;;;;;;;;337336;158;856545;-54
2022/06/21 00:39:34;;;;;;;4.36;1.34;;;;;;;;;;343888;154;866711;-53
2022/06/21 00:40:37;;;;;;;3.97;1.53;;;;;;;;;;349989;151;859099;-55
2022/06/21 00:41:49;;;;;;;8.29;1.62;;;;;;;;;;352747;150;859820;-54
2022/06/21 00:42:56;;;;;;;2.32;1.49;;;;;;;;;;349862;152;857439;-54
2022/06/21 00:43:57;;;;;;;2.49;1.23;;;;;;;;;;349489;150;859171;-54
2022/06/21 00:45:01;;;;;;;2.89;1.61;;;;;;;;;;344024;155;857305;-54
2022/06/21 00:46:02;;;;;;;2.02;1.38;;;;;;;;;;343584;155;857920;-53
2022/06/21 00:47:06;;;;;;;2.74;1.46;;;;;;;;;;350789;151;857340;-53
2022/06/21 00:48:27;;;;;;;4.14;1.48;;;;;;;;;;350687;150;865685;-53
2022/06/21 00:49:30;;;;;;;3.96;1.33;;;;;;;;;;351010;150;857336;-53
2022/06/21 00:50:32;;;;;;;2.76;1.57;;;;;;;;;;351202;151;857415;-53
2022/06/21 00:51:38;;;;;;;2.63;1.27;;;;;;;;;;351209;150;857492;-54
2022/06/21 00:52:42;;;;;;;3.58;1.46;;;;;;;;;;350104;150;857434;-54
2022/06/21 00:53:45;;;;;;;5.38;1.57;;;;;;;;;;349960;151;857398;-53
2022/06/21 00:54:54;;;;;;;2.29;1.42;;;;;;;;;;351373;151;859175;-55
2022/06/21 00:55:57;;;;;;;2.61;1.38;;;;;;;;;;350494;151;857866;-55
2022/06/21 00:57:06;;;;;;;1.70;1.37;;;;;;;;;;350641;152;857384;-55
2022/06/21 00:58:09;;;;;;;4.92;1.43;;;;;;;;;;351243;151;857766;-54
2022/06/21 00:59:18;;;;;;;4.65;1.39;;;;;;;;;;349378;150;858879;-54
2022/06/21 01:00:30;;;;;;;5.42;1.97;;;;;;;;;;350840;152;857340;-54
2022/06/21 01:01:32;;;;;;;3.35;1.30;;;;;;;;;;351319;150;859765;-53
2022/06/21 01:02:34;;;;;;;4.54;1.46;;;;;;;;;;346096;155;859120;-54
2022/06/21 01:03:40;;;;;;;2.81;1.62;;;;;;;;;;346829;154;864647;-54
2022/06/21 01:04:45;;;;;;;2.19;1.33;;;;;;;;;;346012;152;857558;-53
2022/06/21 01:05:46;;;;;;;2.29;1.66;;;;;;;;;;348183;153;856500;-53
2022/06/21 01:06:50;;;;;;;2.65;1.29;;;;;;;;;;347154;151;859188;-54
2022/06/21 01:07:52;;;;;;;1.41;1.31;;;;;;;;;;347751;152;864596;-53
2022/06/21 01:08:55;;;;;;;3.13;1.57;;;;;;;;;;347787;154;865550;-54
2022/06/21 01:10:05;;;;;;;3.90;1.42;;;;;;;;;;347767;152;864487;-54
2022/06/21 01:11:09;;;;;;;5.96;1.48;;;;;;;;;;347083;151;857474;-54
2022/06/21 01:12:21;;;;;;;3.77;1.41;;;;;;;;;;346805;153;857267;-53
2022/06/21 01:13:24;;;;;;;2.42;1.56;;;;;;;;;;347823;152;857287;-54
2022/06/21 01:14:25;;;;;;;2.21;1.55;;;;;;;;;;347853;153;858034;-54
2022/06/21 01:15:33;;;;;;;3.05;1.45;;;;;;;;;;347198;154;866702;-53
2022/06/21 01:16:35;;;;;;;3.72;1.91;;;;;;;;;;345054;155;858794;-54
2022/06/21 01:17:37;;;;;;;1.94;1.33;;;;;;;;;;345388;154;859527;-54
2022/06/21 01:18:39;;;;;;;2.44;1.16;;;;;;;;;;347146;154;866348;-53
2022/06/21 01:19:41;;;;;;;4.37;1.47;;;;;;;;;;346568;154;865624;-54
2022/06/21 01:20:44;;;;;;;2.53;1.37;;;;;;;;;;342493;156;858607;-53
2022/06/21 01:21:46;;;;;;;5.26;1.44;;;;;;;;;;342390;156;858433;-53
2022/06/21 01:22:55;;;;;;;2.55;1.49;;;;;;;;;;336300;159;864887;-55
2022/06/21 01:23:59;;;;;;;3.38;1.28;;;;;;;;;;345080;150;857580;-53
2022/06/21 01:25:05;;;;;;;2.44;1.42;;;;;;;;;;350519;150;857408;-52
2022/06/21 01:26:18;;;;;;;2.29;1.33;;;;;;;;;;352701;150;857250;-54
2022/06/21 01:27:20;;;;;;;4.04;1.65;;;;;;;;;;351146;150;858656;-54
2022/06/21 01:28:21;;;;;;;3.71;1.46;;;;;;;;;;350884;150;859189;-54
2022/06/21 01:29:24;;;;;;;1.37;1.16;;;;;;;;;;351196;150;864575;-54
2022/06/21 01:30:27;;;;;;;6.31;1.53;;;;;;;;;;348851;150;859053;-53
2022/06/21 01:31:29;;;;;;;7.65;1.49;;;;;;;;;;350875;150;865301;-54
2022/06/21 01:32:30;;;;;;;3.52;1.33;;;;;;;;;;350517;150;857936;-54
2022/06/21 01:33:33;;;;;;;2.71;1.52;;;;;;;;;;350684;150;866214;-56
2022/06/21 01:34:35;;;;;;;4.96;1.76;;;;;;;;;;350444;150;864089;-54
2022/06/21 01:35:38;;;;;;;4.59;1.59;;;;;;;;;;350993;150;857334;-54
2022/06/21 01:36:40;;;;;;;4.96;1.50;;;;;;;;;;350843;150;857678;-54
2022/06/21 01:37:41;;;;;;;3.04;1.21;;;;;;;;;;351455;150;865551;-54
2022/06/21 01:38:45;;;;;;;2.24;1.29;;;;;;;;;;350312;150;856690;-53
2022/06/21 01:39:48;;;;;;;6.76;1.39;;;;;;;;;;350629;150;857487;-53
2022/06/21 01:40:51;;;;;;;2.94;1.47;;;;;;;;;;352692;150;857876;-53
2022/06/21 01:42:04;;;;;;;2.23;1.35;;;;;;;;;;352012;150;867233;-54
2022/06/21 01:43:11;;;;;;;4.46;1.11;;;;;;;;;;351361;150;858753;-53
2022/06/21 01:44:14;;;;;;;3.10;1.60;;;;;;;;;;350070;150;859698;-54
2022/06/21 01:45:20;;;;;;;3.84;1.37;;;;;;;;;;351008;150;857414;-55
2022/06/21 01:46:23;;;;;;;1.81;1.40;;;;;;;;;;351263;150;857341;-54
2022/06/21 01:47:25;;;;;;;3.19;1.38;;;;;;;;;;345470;154;859540;-54
2022/06/21 01:48:44;;;;;;;5.49;1.77;;;;;;;;;;345189;155;857359;-54
2022/06/21 01:49:46;;;;;;;2.54;1.42;;;;;;;;;;344596;155;857354;-54
2022/06/21 01:50:48;;;;;;;4.97;1.72;;;;;;;;;;344920;154;857387;-54
2022/06/21 01:51:52;;;;;;;3.69;1.51;;;;;;;;;;344596;154;857245;-55
2022/06/21 01:52:54;;;;;;;8.22;1.79;;;;;;;;;;339788;155;866264;-53
2022/06/21 01:53:55;;;;;;;3.36;1.36;;;;;;;;;;343776;153;856800;-54
2022/06/21 01:55:08;;;;;;;2.26;1.33;;;;;;;;;;344778;153;857381;-54
2022/06/21 01:56:15;;;;;;;4.53;1.48;;;;;;;;;;338271;155;866931;-54
2022/06/21 01:57:17;;;;;;;2.57;1.41;;;;;;;;;;344454;155;857544;-55
2022/06/21 01:58:20;;;;;;;1.46;1.33;;;;;;;;;;344327;155;860121;-55
2022/06/21 01:59:29;;;;;;;4.37;1.89;;;;;;;;;;345462;154;865824;-54
2022/06/21 02:00:32;;;;;;;4.39;1.66;;;;;;;;;;343056;154;864765;-54
2022/06/21 02:01:44;;;;;;;2.48;1.46;;;;;;;;;;345154;155;864649;-54
2022/06/21 02:03:09;;;;;;;7.03;1.89;;;;;;;;;;357974;147;857308;-53
2022/06/21 02:04:12;;;;;;;7.87;1.85;;;;;;;;;;358525;147;858278;-54
2022/06/21 02:05:18;;;;;;;6.91;1.84;;;;;;;;;;351676;151;857356;-54
2022/06/21 02:06:20;;;;;;;5.12;1.61;;;;;;;;;;353850;150;857350;-55
2022/06/21 02:07:23;;;;;;;10.31;1.73;;;;;;;;;;354076;150;859252;-54
2022/06/21 02:08:26;;;;;;;14.77;2.49;;;;;;;;;;350352;151;859097;-53
2022/06/21 02:09:29;;;;;;;4.50;1.86;;;;;;;;;;357963;148;858820;-54
2022/06/21 02:10:32;;;;;;;2.93;1.58;;;;;;;;;;351947;149;857394;-53
2022/06/21 02:11:36;;;;;;;4.74;1.65;;;;;;;;;;357930;147;856841;-54
2022/06/21 02:12:39;;;;;;;8.58;1.99;;;;;;;;;;358587;147;857347;-53
2022/06/21 02:13:43;;;;;;;4.16;1.48;;;;;;;;;;358749;147;857440;-54
2022/06/21 02:14:46;;;;;;;4.39;1.25;;;;;;;;;;358154;147;857553;-54
2022/06/21 02:15:52;;;;;;;2.82;1.26;;;;;;;;;;358434;148;857418;-54
2022/06/21 02:16:55;;;;;;;2.54;1.59;;;;;;;;;;357786;147;866595;-53
2022/06/21 02:17:57;;;;;;;2.03;1.36;;;;;;;;;;351625;150;857327;-54
2022/06/21 02:18:58;;;;;;;2.88;1.39;;;;;;;;;;350233;150;866528;-53
2022/06/21 02:20:02;;;;;;;1.68;1.20;;;;;;;;;;353587;150;857232;-54
2022/06/21 02:21:05;;;;;;;4.30;1.56;;;;;;;;;;354881;148;857806;-54
2022/06/21 02:22:11;;;;;;;4.16;1.31;;;;;;;;;;357148;149;857352;-55
2022/06/21 02:23:13;;;;;;;2.14;1.43;;;;;;;;;;355947;149;858851;-53
2022/06/21 02:24:14;;;;;;;4.37;1.25;;;;;;;;;;356322;148;858429;-54
2022/06/21 02:25:18;;;;;;;6.01;1.36;;;;;;;;;;355382;149;857348;-57
2022/06/21 02:26:20;;;;;;;3.67;1.45;;;;;;;;;;355657;148;858094;-55
2022/06/21 02:27:23;;;;;;;6.89;1.63;;;;;;;;;;355042;149;860651;-54
2022/06/21 02:28:28;;;;;;;3.37;1.31;;;;;;;;;;355620;148;857883;-54
2022/06/21 02:29:30;;;;;;;7.46;1.74;;;;;;;;;;355387;149;857322;-53
2022/06/21 02:30:32;;;;;;;5.75;1.59;;;;;;;;;;355723;149;857459;-54
2022/06/21 02:31:34;;;;;;;3.42;1.32;;;;;;;;;;355881;148;858337;-53
2022/06/21 02:32:36;;;;;;;3.84;1.49;;;;;;;;;;356338;149;864970;-54
2022/06/21 02:33:38;;;;;;;2.24;1.30;;;;;;;;;;356779;149;857280;-54
2022/06/21 02:34:39;;;;;;;4.48;1.69;;;;;;;;;;357127;148;857446;-53
2022/06/21 02:35:51;;;;;;;9.12;1.81;;;;;;;;;;355040;149;864977;-54
2022/06/21 02:36:55;;;;;;;9.81;1.56;;;;;;;;;;355934;148;865683;-54
2022/06/21 02:37:58;;;;;;;4.00;1.54;;;;;;;;;;355445;148;857445;-55
2022/06/21 02:39:01;;;;;;;9.72;1.83;;;;;;;;;;355425;148;856728;-53
2022/06/21 02:40:04;;;;;;;5.34;1.61;;;;;;;;;;354934;148;859097;-54
2022/06/21 02:41:14;;;;;;;3.46;1.59;;;;;;;;;;354824;148;858775;-54
2022/06/21 02:42:19;;;;;;;5.14;1.50;;;;;;;;;;354758;148;859057;-54
2022/06/21 02:43:26;;;;;;;3.42;1.36;;;;;;;;;;353610;148;857359;-54
2022/06/21 02:44:38;;;;;;;2.46;1.39;;;;;;;;;;356032;149;858197;-55
2022/06/21 02:45:54;;;;;;;4.38;1.51;;;;;;;;;;356244;150;858720;-53
2022/06/21 02:46:56;;;;;;;3.32;1.51;;;;;;;;;;355585;149;857307;-54
2022/06/21 02:48:00;;;;;;;3.83;1.68;;;;;;;;;;356382;148;857344;-53
2022/06/21 02:49:09;;;;;;;1.99;1.24;;;;;;;;;;355576;148;865413;-54
2022/06/21 02:50:32;;;;;;;5.37;1.79;;;;;;;;;;354711;148;859380;-55
2022/06/21 02:51:38;;;;;;;3.09;1.44;;;;;;;;;;356460;148;859313;-54
2022/06/21 02:52:40;;;;;;;2.34;1.71;;;;;;;;;;356078;150;858270;-53
2022/06/21 02:53:42;;;;;;;2.59;1.40;;;;;;;;;;355795;148;857929;-54
2022/06/21 02:54:52;;;;;;;1.79;1.37;;;;;;;;;;356234;148;857440;-53
2022/06/21 02:55:55;;;;;;;2.96;1.52;;;;;;;;;;354451;148;856989;-55
2022/06/21 02:56:58;;;;;;;5.65;1.44;;;;;;;;;;355264;148;857933;-54
2022/06/21 02:58:16;;;;;;;2.67;1.46;;;;;;;;;;354774;149;866000;-54
2022/06/21 02:59:18;;;;;;;5.02;1.56;;;;;;;;;;355748;148;857320;-55
2022/06/21 03:00:20;;;;;;;3.57;1.51;;;;;;;;;;356583;148;858664;-55
2022/06/21 03:01:27;;;;;;;3.28;1.27;;;;;;;;;;354712;148;859458;-54
2022/06/21 03:02:29;;;;;;;2.75;1.42;;;;;;;;;;356203;148;865334;-55
2022/06/21 03:03:32;;;;;;;2.63;1.46;;;;;;;;;;356435;149;859775;-54
2022/06/21 03:04:35;;;;;;;3.12;1.62;;;;;;;;;;354462;148;864218;-53
2022/06/21 03:05:37;;;;;;;3.78;1.33;;;;;;;;;;355993;148;857386;-53
2022/06/21 03:06:39;;;;;;;2.16;1.34;;;;;;;;;;356468;148;857400;-54
2022/06/21 03:07:41;;;;;;;3.29;1.39;;;;;;;;;;353166;149;866794;-53
2022/06/21 03:08:54;;;;;;;2.54;1.52;;;;;;;;;;355520;148;859759;-54
2022/06/21 03:09:57;;;;;;;4.18;1.59;;;;;;;;;;355252;149;864832;-55
2022/06/21 03:10:59;;;;;;;4.07;1.53;;;;;;;;;;356148;148;857321;-54
2022/06/21 03:12:01;;;;;;;2.17;1.46;;;;;;;;;;356597;148;857520;-53
2022/06/21 03:13:05;;;;;;;5.16;1.30;;;;;;;;;;354919;149;866616;-54
2022/06/21 03:14:23;;;;;;;1.55;1.43;;;;;;;;;;349966;149;857252;-54
2022/06/21 03:15:26;;;;;;;2.12;1.22;;;;;;;;;;356320;149;858753;-55
2022/06/21 03:16:28;;;;;;;2.37;1.35;;;;;;;;;;355988;149;858590;-54
2022/06/21 03:17:31;;;;;;;3.19;1.41;;;;;;;;;;356039;149;868635;-54
2022/06/21 03:18:44;;;;;;;1.89;1.36;;;;;;;;;;355982;148;857925;-54
2022/06/21 03:19:52;;;;;;;3.13;1.60;;;;;;;;;;354897;148;856798;-55
2022/06/21 03:20:54;;;;;;;4.17;1.43;;;;;;;;;;355794;148;859432;-54
2022/06/21 03:21:55;;;;;;;7.05;1.58;;;;;;;;;;357030;148;857391;-54
2022/06/21 03:22:57;;;;;;;2.59;1.18;;;;;;;;;;355990;148;859942;-54
2022/06/21 03:23:59;;;;;;;3.65;1.54;;;;;;;;;;355787;149;857300;-54
2022/06/21 03:25:02;;;;;;;8.31;1.78;;;;;;;;;;355321;149;864569;-53
2022/06/21 03:26:04;;;;;;;4.75;1.64;;;;;;;;;;356787;149;857422;-53
2022/06/21 03:27:08;;;;;;;5.43;1.50;;;;;;;;;;353517;149;864800;-54
2022/06/21 03:28:26;;;;;;;2.22;1.24;;;;;;;;;;353765;149;858601;-53
2022/06/21 03:29:29;;;;;;;7.03;1.46;;;;;;;;;;353258;150;857335;-54
2022/06/21 03:30:32;;;;;;;4.34;1.78;;;;;;;;;;357771;147;857276;-53
2022/06/21 03:31:35;;;;;;;5.48;1.39;;;;;;;;;;353461;149;856778;-54
2022/06/21 03:32:37;;;;;;;8.33;1.66;;;;;;;;;;357229;147;864765;-54
2022/06/21 03:33:40;;;;;;;2.41;1.51;;;;;;;;;;351646;150;858940;-53
2022/06/21 03:34:41;;;;;;;2.72;1.55;;;;;;;;;;351682;151;857492;-54
2022/06/21 03:35:43;;;;;;;3.10;1.35;;;;;;;;;;350316;150;859722;-54
2022/06/21 03:36:45;;;;;;;1.29;1.05;;;;;;;;;;355760;148;864655;-54
2022/06/21 03:37:47;;;;;;;2.88;1.53;;;;;;;;;;354585;148;865018;-55
2022/06/21 03:38:50;;;;;;;3.83;1.50;;;;;;;;;;354909;148;865830;-55
2022/06/21 03:42:33;;;;;;;5.72;1.66;;;;;;;;;;350224;150;857448;-53
2022/06/21 03:43:36;;;;;;;3.91;1.61;;;;;;;;;;351873;147;864801;-54
2022/06/21 03:44:39;;;;;;;2.49;1.25;;;;;;;;;;350035;151;859424;-54
2022/06/21 03:45:42;;;;;;;1.96;1.39;;;;;;;;;;350959;151;857994;-54
2022/06/21 03:46:52;;;;;;;5.80;1.42;;;;;;;;;;350530;151;859564;-54
2022/06/21 03:47:54;;;;;;;;;;;;;;;;;;350724;153;864950;-56
2022/06/21 03:49:00;;;;;;;4.12;1.41;;;;;;;;;;347445;151;856418;-55
2022/06/21 03:50:03;;;;;;;2.31;1.34;;;;;;;;;;347931;151;858997;-56
2022/06/21 03:51:06;;;;;;;6.33;1.59;;;;;;;;;;348552;151;858463;-55
2022/06/21 03:52:10;;;;;;;3.44;1.21;;;;;;;;;;354444;149;857297;-53
2022/06/21 03:53:14;;;;;;;3.09;1.56;;;;;;;;;;353384;150;859065;-54
2022/06/21 03:54:17;;;;;;;2.17;1.51;;;;;;;;;;353394;149;866702;-55
2022/06/21 03:55:38;;;;;;;4.69;1.26;;;;;;;;;;357218;149;864993;-55
2022/06/21 03:56:41;;;;;;;4.66;1.41;;;;;;;;;;353030;149;865143;-53
2022/06/21 03:57:45;;;;;;;2.91;1.41;;;;;;;;;;356480;147;859180;-53
2022/06/21 03:58:49;;;;;;;1.93;1.14;;;;;;;;;;353522;151;865916;-55
2022/06/21 03:59:53;;;;;;;7.79;1.56;;;;;;;;;;352019;151;864837;-54
2022/06/21 04:00:56;;;;;;;2.13;1.41;;;;;;;;;;355657;148;859051;-54
2022/06/21 04:02:00;;;;;;;2.08;1.31;;;;;;;;;;353067;150;865773;-54
2022/06/21 04:03:03;;;;;;;3.69;1.46;;;;;;;;;;357155;147;859360;-53
2022/06/21 04:04:10;;;;;;;7.49;1.27;;;;;;;;;;352160;152;859143;-55
2022/06/21 04:05:26;;;;;;;3.94;1.45;;;;;;;;;;351786;150;857311;-55
2022/06/21 04:06:30;;;;;;;3.98;1.51;;;;;;;;;;350027;151;857369;-55
2022/06/21 04:07:36;;;;;;;1.88;1.07;;;;;;;;;;356949;147;857377;-54
2022/06/21 04:08:43;;;;;;;1.86;1.39;;;;;;;;;;355137;149;857319;-57
2022/06/21 04:10:03;;;;;;;1.93;1.39;;;;;;;;;;356557;148;857950;-55
2022/06/21 04:11:06;;;;;;;;;;;;;;;;;;359990;147;857005;-55
2022/06/21 04:12:16;;;;;;;6.39;1.56;;;;;;;;;;350239;150;857458;-54
2022/06/21 04:13:18;;;;;;;;;;;;;;;;;;360217;148;855740;-54
2022/06/21 04:14:21;;;;;;;2.34;1.50;;;;;;;;;;348840;150;857365;-54
2022/06/21 04:15:28;;;;;;;3.22;1.57;;;;;;;;;;356995;147;856815;-55
2022/06/21 04:16:31;;;;;;;4.07;1.48;;;;;;;;;;350726;150;856314;-54
2022/06/21 04:17:34;;;;;;;5.26;1.40;;;;;;;;;;351928;150;857023;-56
2022/06/21 04:18:41;;;;;;;7.94;1.49;;;;;;;;;;354461;150;856312;-58
2022/06/21 04:21:42;;;;;;;2.86;1.52;;;;;;;23.18;38.38;98452.23;370347;142;880446;-56
2022/06/21 04:22:47;;;;;;;3.46;1.49;;;;;;;23.13;38.38;98454.42;361752;147;857405;-54
2022/06/21 04:23:53;;;;;;;2.26;1.42;;;;;;;23.12;38.92;98448.28;359566;147;859693;-56
2022/06/21 04:25:04;;;;;;;4.23;1.41;;;;;;;23.17;38.38;98454.02;362294;147;859015;-55
2022/06/21 04:26:19;;;;;;;3.24;1.19;;;;;;;23.22;38.40;98455.43;362922;147;859818;-55
2022/06/21 04:27:45;;;;;;;5.44;1.52;;;;;;;23.24;38.68;98448.25;364055;147;857330;-55
2022/06/21 04:28:57;;;;;;;3.43;1.54;;;;;;;23.23;38.84;98447.39;362931;147;857606;-55
2022/06/21 04:30:11;;;;;;;3.31;1.29;;;;;;;23.28;38.46;98454.94;362180;147;857404;-56
2022/06/21 04:31:22;;;;;;;4.38;1.39;;;;;;;23.33;38.98;98443.03;359327;147;858367;-56
2022/06/21 04:32:43;;;;;;;3.56;1.59;;;;;;;23.34;38.49;98446.53;363176;147;857289;-56
2022/06/21 04:33:51;;;;;;;5.31;1.32;;;;;;;23.37;38.99;98443.63;362714;147;857643;-58
2022/06/21 04:35:05;;;;;;;3.64;1.54;;;;;;;23.42;38.91;98443.22;353340;147;857405;-56
2022/06/21 04:36:17;;;;;;;4.63;1.46;;;;;;;23.44;38.85;98443.92;363554;147;857340;-59
2022/06/21 04:37:28;;;;;;;6.93;1.46;;;;;;;23.44;39.17;98438.63;362085;147;857383;-57
2022/06/21 04:38:36;;;;;;;3.24;1.48;;;;;;;23.46;39.44;98434.91;349450;152;858163;-62
2022/06/21 04:39:51;;;;;;;2.94;1.34;;;;;;;23.48;39.04;98443.53;365380;141;857332;-58
2022/06/21 04:41:02;;;;;;;2.65;1.39;;;;;;;23.51;39.04;98438.96;366514;142;857238;-59
2022/06/21 04:42:20;;;;;;;3.08;1.50;;;;;;;23.51;39.08;98438.96;367047;144;858285;-60
2022/06/21 04:43:29;;;;;;;2.68;1.59;;;;;;;23.51;39.35;98436.31;367684;144;856361;-60
2022/06/21 04:44:40;;;;;;;4.10;1.38;;;;;;;23.48;38.85;98432.97;367203;145;858217;-58
2022/06/21 04:46:08;;;;;;;2.33;1.26;;;;;;;23.51;39.25;98431.03;345601;152;856490;-58
2022/06/21 04:47:19;;;;;;;4.01;1.57;;;;;;;23.52;38.80;98428.24;358053;147;857924;-57
2022/06/21 04:48:33;;;;;;;6.30;1.67;;;;;;;23.55;38.95;98429.80;355997;149;857363;-56
2022/06/21 04:49:39;;;;;;;4.02;1.49;;;;;;;23.60;40.11;98427.59;357664;147;858180;-58
2022/06/21 04:50:43;;;;;;;5.86;1.57;;;;;;;23.63;39.15;98412.30;357010;149;856354;-56
2022/06/21 04:51:51;;;;;;;3.82;1.45;;;;;;;23.67;38.67;98420.81;356315;149;859075;-55
2022/06/21 04:53:18;;;;;;;3.95;1.63;;;;;;;23.69;38.52;98420.66;356994;149;857341;-57
2022/06/21 04:54:25;;;;;;;3.19;1.70;;;;;;;23.68;38.60;98424.27;354207;149;857881;-58
2022/06/21 04:55:31;;;;;;;3.88;1.45;;;;;;;23.75;39.40;98425.41;356161;148;859445;-56
2022/06/21 04:56:49;;;;;;;5.13;1.44;;;;;;;23.82;39.39;98423.90;356811;149;859223;-57
2022/06/21 04:57:51;;;;;;;10.42;2.00;;;;;;;23.86;39.41;98424.48;355814;147;856664;-57
2022/06/21 04:58:53;;;;;;;3.04;1.58;;;;;;;23.88;39.13;98417.25;358180;147;856414;-60
2022/06/21 05:00:04;;;;;;;4.68;1.69;;;;;;;23.93;39.30;98418.53;347989;150;857288;-57
2022/06/21 05:01:29;;;;;;;4.07;1.48;;;;;;;23.99;38.64;98422.42;344016;153;856611;-58
2022/06/21 05:02:16;;;;;;;2.36;1.52;;;;;;;24.05;39.04;98423.73;342599;153;856311;-58
2022/06/21 05:03:27;;;;;;;4.21;1.63;;;;;;;24.09;38.84;98417.20;353548;150;863789;-57
2022/06/21 05:04:35;;;;;;;7.80;2.09;;;;;;;24.17;38.91;98413.86;346237;152;856476;-58
2022/06/21 05:05:37;;;;;;;3.17;1.61;;;;;;;24.21;38.60;98410.82;346216;150;857159;-57
2022/06/21 05:06:40;;;;;;;4.00;1.69;;;;;;;24.24;39.15;98412.34;352498;150;856734;-57
2022/06/21 05:07:57;;;;;;;5.23;1.77;;;;;;;24.30;38.53;98405.67;354353;150;856891;-57
2022/06/21 05:08:59;;;;;;;2.11;1.53;;;;;;;24.30;38.53;98405.67;351412;150;856357;-57
2022/06/21 05:10:00;;;;;;;3.71;1.77;;;;;;;24.39;38.90;98415.42;350591;150;856627;-57
2022/06/21 05:11:02;;;;;;;4.21;1.65;;;;;;;24.45;38.63;98417.52;350670;150;856332;-58
2022/06/21 05:12:11;;;;;;;3.19;1.73;;;;;;;24.46;38.68;98410.43;352034;150;856532;-58
2022/06/21 05:13:18;;;;;;;4.77;1.69;;;;;;;24.48;38.07;98411.95;345066;152;863362;-58
2022/06/21 05:14:26;;;;;;;4.71;1.72;;;;;;;24.52;38.50;98407.23;351096;150;856531;-55
2022/06/21 05:15:30;;;;;;;5.19;1.63;;;;;;;24.53;38.24;98415.98;353779;150;856350;-57
2022/06/21 05:16:37;;;;;;;4.52;1.56;;;;;;;24.51;38.20;98406.38;351475;150;856235;-56
2022/06/21 05:17:40;;;;;;;3.49;1.44;;;;;;;24.52;38.06;98401.94;344829;153;857377;-56
2022/06/21 05:19:06;;;;;;;2.49;1.66;;;;;;;24.54;38.60;98415.86;346482;152;857106;-56
2022/06/21 05:20:10;;;;;;;4.29;1.53;;;;;;;24.58;38.56;98427.83;351185;150;856465;-56
2022/06/21 05:21:16;;;;;;;2.13;1.67;;;;;;;24.55;38.09;98428.11;351835;150;856323;-57
2022/06/21 05:22:36;;;;;;;3.46;1.40;;;;;;;24.61;38.54;98406.38;351586;150;857076;-58
2022/06/21 05:23:37;;;;;;;6.83;2.07;;;;;;;24.68;38.87;98401.34;352648;150;856340;-58
2022/06/21 05:24:39;;;;;;;3.92;1.45;;;;;;;24.77;38.43;98407.66;353630;150;863805;-58
2022/06/21 05:25:42;;;;;;;3.37;1.63;;;;;;;24.82;38.55;98402.77;351683;150;856517;-57
2022/06/21 05:26:46;;;;;;;3.16;1.68;;;;;;;;;;353773;150;857098;-56
2022/06/21 05:27:48;;;;;;;3.16;1.57;;;;;;;;;;351191;150;863733;-56
2022/06/21 05:28:52;;;;;;;4.01;1.81;;;;;;;;;;350491;150;859003;-56
2022/06/21 05:30:15;;;;;;;1.77;1.22;;;;;;;;;;346750;150;856356;-56
2022/06/21 05:31:25;;;;;;;3.77;1.47;;;;;;;;;;351004;150;857267;-56
2022/06/21 05:32:27;;;;;;;5.42;1.81;;;;;;;;;;353439;150;857545;-55
2022/06/21 05:33:32;;;;;;;3.83;1.71;;;;;;;;;;348179;151;857378;-55
2022/06/21 05:34:35;;;;;;;3.50;1.69;;;;;;;;;;352610;150;864764;-55
2022/06/21 05:35:37;;;;;;;3.87;1.51;;;;;;;;;;343567;152;859268;-55
2022/06/21 05:36:40;;;;;;;2.67;1.47;;;;;;;;;;345745;152;864943;-55
2022/06/21 05:37:50;;;;;;;5.57;1.75;;;;;;;;;;349409;151;857556;-55
2022/06/21 05:38:57;;;;;;;4.06;1.54;;;;;;;;;;349185;151;865725;-56
2022/06/21 05:39:59;;;;;;;3.13;1.61;;;;;;;;;;348689;151;857531;-56
2022/06/21 05:41:06;;;;;;;8.79;1.79;;;;;;;;;;347907;151;858739;-56
2022/06/21 05:42:09;;;;;;;2.07;1.39;;;;;;;;;;347358;151;856356;-57
2022/06/21 05:43:13;;;;;;;6.96;1.84;;;;;;;;;;351591;151;857879;-57
2022/06/21 05:44:28;;;;;;;5.29;1.92;;;;;;;;;;349851;151;864797;-56
2022/06/21 05:45:32;;;;;;;4.23;1.56;;;;;;;;;;349390;151;857981;-55
2022/06/21 05:46:35;;;;;;;9.42;1.70;;;;;;;;;;350218;151;857286;-55
2022/06/21 05:47:38;;;;;;;3.31;1.59;;;;;;;;;;349832;151;859031;-54
2022/06/21 05:48:40;;;;;;;6.85;1.62;;;;;;;;;;348419;152;859210;-55
2022/06/21 05:49:41;;;;;;;5.03;1.63;;;;;;;;;;348706;151;859231;-56
2022/06/21 05:50:43;;;;;;;8.99;1.87;;;;;;;;;;347832;151;857519;-57
2022/06/21 05:51:45;;;;;;;2.21;1.56;;;;;;;;;;348646;151;865594;-56
2022/06/21 05:52:48;;;;;;;7.74;1.93;;;;;;;;;;347850;151;865064;-57
2022/06/21 05:53:50;;;;;;;2.80;1.74;;;;;;;;;;350728;151;859302;-57
2022/06/21 05:54:54;;;;;;;6.73;1.96;;;;;;;;;;349766;151;864797;-56
2022/06/21 05:55:55;;;;;;;5.59;2.43;;;;;;;;;;349998;151;858064;-56
2022/06/21 05:56:58;;;;;;;3.63;1.94;;;;;;;;;;349223;151;857392;-56
2022/06/21 05:58:01;;;;;;;6.69;2.10;;;;;;;;;;349690;151;864729;-60
2022/06/21 05:59:06;;;;;;;8.37;2.03;;;;;;;;;;349639;151;858811;-61
2022/06/21 06:00:20;;;;;;;6.76;2.18;;;;;;;;;;350367;151;866846;-62
2022/06/21 06:01:29;;;;;;;2.87;2.02;;;;;;;;;;347951;151;861278;-62
2022/06/21 06:02:36;;;;;;;3.99;1.70;;;;;;;;;;340054;153;857367;-62
2022/06/21 06:03:43;;;;;;;2.98;1.69;;;;;;;;;;341624;153;857841;-62
2022/06/21 06:04:45;;;;;;;4.27;2.02;;;;;;;;;;344456;153;859233;-56
2022/06/21 06:05:47;;;;;;;6.49;2.23;;;;;;;;;;342399;154;857755;-61
2022/06/21 06:06:50;;;;;;;7.67;1.90;;;;;;;;;;342866;153;864714;-56
2022/06/21 06:07:53;;;;;;;5.19;1.93;;;;;;;;;;343514;153;857304;-57
2022/06/21 06:08:56;;;;;;;8.32;2.23;;;;;;;;;;343533;154;857307;-56
2022/06/21 06:09:59;;;;;;;4.49;1.92;;;;;;;;;;344216;153;858272;-57
2022/06/21 06:11:02;;;;;;;6.26;2.12;;;;;;;;;;342872;153;860428;-57
2022/06/21 06:12:05;;;;;;;5.74;2.02;;;;;;;;;;343607;152;858975;-56
2022/06/21 06:13:08;;;;;;;3.57;2.09;;;;;;;;;;342460;154;857401;-54
2022/06/21 06:14:10;;;;;;;12.56;2.84;;;;;;;;;;343861;152;858795;-57
2022/06/21 06:15:22;;;;;;;6.71;1.99;;;;;;;;;;344923;152;859133;-56